sensor_id;sensor_type;location;lat;lon;timestamp;P1;durP1;ratioP1;P2;durP2;ratioP2
19446;SDS011;9862;49.462;11.054;2024-01-11T00:00:40;36.80;;;17.88;;
19446;SDS011;9862;49.462;11.054;2024-01-11T00:03:07;36.75;;;18.65;;
19446;SDS011;9862;49.462;11.054;2024-01-11T00:05:34;38.92;;;18.48;;
19446;SDS011;9862;49.462;11.054;2024-01-11T00:08:01;35.17;;;17.77;;
19446;SDS011;9862;49.462;11.054;2024-01-11T00:10:29;38.70;;;19.77;;
19446;SDS011;9862;49.462;11.054;2024-01-11T00:12:55;37.05;;;18.90;;
19446;SDS011;9862;49.462;11.054;2024-01-11T00:15:22;40.60;;;20.13;;
19446;SDS011;9862;49.462;11.054;2024-01-11T00:17:49;45.85;;;19.77;;
19446;SDS011;9862;49.462;11.054;2024-01-11T00:20:16;37.92;;;18.85;;
19446;SDS011;9862;49.462;11.054;2024-01-11T00:22:43;41.20;;;20.10;;
19446;SDS011;9862;49.462;11.054;2024-01-11T00:25:09;38.38;;;18.60;;
19446;SDS011;9862;49.462;11.054;2024-01-11T00:27:36;34.17;;;17.98;;
19446;SDS011;9862;49.462;11.054;2024-01-11T00:30:03;42.97;;;19.17;;
19446;SDS011;9862;49.462;11.054;2024-01-11T00:32:31;40.33;;;19.48;;
19446;SDS011;9862;49.462;11.054;2024-01-11T00:34:59;43.63;;;19.05;;
19446;SDS011;9862;49.462;11.054;2024-01-11T00:37:26;36.33;;;18.10;;
19446;SDS011;9862;49.462;11.054;2024-01-11T00:39:52;37.60;;;18.65;;
19446;SDS011;9862;49.462;11.054;2024-01-11T00:42:19;42.45;;;20.02;;
19446;SDS011;9862;49.462;11.054;2024-01-11T00:44:46;34.55;;;19.30;;
19446;SDS011;9862;49.462;11.054;2024-01-11T00:47:12;44.63;;;20.55;;
19446;SDS011;9862;49.462;11.054;2024-01-11T00:49:39;39.97;;;18.20;;
19446;SDS011;9862;49.462;11.054;2024-01-11T00:52:07;38.15;;;18.70;;
19446;SDS011;9862;49.462;11.054;2024-01-11T00:54:34;37.25;;;19.65;;
19446;SDS011;9862;49.462;11.054;2024-01-11T00:57:01;38.25;;;18.95;;
19446;SDS011;9862;49.462;11.054;2024-01-11T00:59:28;40.55;;;18.33;;
19446;SDS011;9862;49.462;11.054;2024-01-11T01:01:54;40.78;;;18.58;;
19446;SDS011;9862;49.462;11.054;2024-01-11T01:04:21;40.45;;;19.05;;
19446;SDS011;9862;49.462;11.054;2024-01-11T01:06:48;41.72;;;19.10;;
19446;SDS011;9862;49.462;11.054;2024-01-11T01:09:15;36.50;;;19.35;;
19446;SDS011;9862;49.462;11.054;2024-01-11T01:11:42;40.88;;;19.42;;
19446;SDS011;9862;49.462;11.054;2024-01-11T01:14:09;43.30;;;21.02;;
19446;SDS011;9862;49.462;11.054;2024-01-11T01:16:35;39.80;;;18.90;;
19446;SDS011;9862;49.462;11.054;2024-01-11T01:19:02;40.78;;;19.25;;
19446;SDS011;9862;49.462;11.054;2024-01-11T01:21:29;39.40;;;19.00;;
19446;SDS011;9862;49.462;11.054;2024-01-11T01:23:55;34.80;;;18.55;;
19446;SDS011;9862;49.462;11.054;2024-01-11T01:26:23;37.63;;;18.35;;
19446;SDS011;9862;49.462;11.054;2024-01-11T01:28:50;36.97;;;18.77;;
19446;SDS011;9862;49.462;11.054;2024-01-11T01:31:17;38.17;;;17.50;;
19446;SDS011;9862;49.462;11.054;2024-01-11T01:33:43;42.17;;;19.23;;
19446;SDS011;9862;49.462;11.054;2024-01-11T01:36:10;38.05;;;17.17;;
19446;SDS011;9862;49.462;11.054;2024-01-11T01:38:37;42.83;;;19.02;;
19446;SDS011;9862;49.462;11.054;2024-01-11T01:41:03;44.15;;;19.40;;
19446;SDS011;9862;49.462;11.054;2024-01-11T01:43:30;39.33;;;19.80;;
19446;SDS011;9862;49.462;11.054;2024-01-11T01:45:57;37.05;;;17.98;;
19446;SDS011;9862;49.462;11.054;2024-01-11T01:48:25;32.72;;;17.75;;
19446;SDS011;9862;49.462;11.054;2024-01-11T01:50:52;34.72;;;17.52;;
19446;SDS011;9862;49.462;11.054;2024-01-11T01:53:19;40.75;;;18.83;;
19446;SDS011;9862;49.462;11.054;2024-01-11T01:55:48;33.97;;;18.23;;
19446;SDS011;9862;49.462;11.054;2024-01-11T01:58:15;37.30;;;17.67;;
19446;SDS011;9862;49.462;11.054;2024-01-11T02:00:46;38.05;;;17.60;;
19446;SDS011;9862;49.462;11.054;2024-01-11T02:03:14;37.25;;;18.15;;
19446;SDS011;9862;49.462;11.054;2024-01-11T02:05:42;36.75;;;18.83;;
19446;SDS011;9862;49.462;11.054;2024-01-11T02:08:09;40.33;;;18.02;;
19446;SDS011;9862;49.462;11.054;2024-01-11T02:10:41;39.45;;;18.25;;
19446;SDS011;9862;49.462;11.054;2024-01-11T02:13:09;40.22;;;18.83;;
19446;SDS011;9862;49.462;11.054;2024-01-11T02:15:36;33.38;;;17.33;;
19446;SDS011;9862;49.462;11.054;2024-01-11T02:18:04;40.63;;;17.88;;
19446;SDS011;9862;49.462;11.054;2024-01-11T02:20:31;34.05;;;16.98;;
19446;SDS011;9862;49.462;11.054;2024-01-11T02:22:58;34.60;;;16.77;;
19446;SDS011;9862;49.462;11.054;2024-01-11T02:25:31;35.58;;;17.20;;
19446;SDS011;9862;49.462;11.054;2024-01-11T02:27:57;39.40;;;19.00;;
19446;SDS011;9862;49.462;11.054;2024-01-11T02:30:24;36.50;;;17.75;;
19446;SDS011;9862;49.462;11.054;2024-01-11T02:32:51;36.63;;;18.25;;
19446;SDS011;9862;49.462;11.054;2024-01-11T02:35:19;43.53;;;18.17;;
19446;SDS011;9862;49.462;11.054;2024-01-11T02:37:46;40.20;;;18.15;;
19446;SDS011;9862;49.462;11.054;2024-01-11T02:40:13;35.03;;;17.27;;
19446;SDS011;9862;49.462;11.054;2024-01-11T02:42:42;36.28;;;16.50;;
19446;SDS011;9862;49.462;11.054;2024-01-11T02:45:09;40.13;;;18.27;;
19446;SDS011;9862;49.462;11.054;2024-01-11T02:47:37;39.72;;;17.90;;
19446;SDS011;9862;49.462;11.054;2024-01-11T02:50:03;41.83;;;17.48;;
19446;SDS011;9862;49.462;11.054;2024-01-11T02:52:30;40.00;;;17.83;;
19446;SDS011;9862;49.462;11.054;2024-01-11T02:54:57;35.63;;;18.35;;
19446;SDS011;9862;49.462;11.054;2024-01-11T02:57:24;41.17;;;18.58;;
19446;SDS011;9862;49.462;11.054;2024-01-11T02:59:52;40.53;;;18.15;;
19446;SDS011;9862;49.462;11.054;2024-01-11T03:02:18;35.67;;;17.30;;
19446;SDS011;9862;49.462;11.054;2024-01-11T03:04:45;32.83;;;17.55;;
19446;SDS011;9862;49.462;11.054;2024-01-11T03:07:12;32.83;;;17.05;;
19446;SDS011;9862;49.462;11.054;2024-01-11T03:09:38;41.05;;;18.52;;
19446;SDS011;9862;49.462;11.054;2024-01-11T03:12:06;37.95;;;15.98;;
19446;SDS011;9862;49.462;11.054;2024-01-11T03:14:33;38.10;;;18.48;;
19446;SDS011;9862;49.462;11.054;2024-01-11T03:17:03;36.05;;;17.50;;
19446;SDS011;9862;49.462;11.054;2024-01-11T03:19:32;38.20;;;17.65;;
19446;SDS011;9862;49.462;11.054;2024-01-11T03:22:00;35.05;;;17.52;;
19446;SDS011;9862;49.462;11.054;2024-01-11T03:24:32;34.95;;;17.55;;
19446;SDS011;9862;49.462;11.054;2024-01-11T03:27:00;38.22;;;17.05;;
19446;SDS011;9862;49.462;11.054;2024-01-11T03:29:28;38.17;;;18.85;;
19446;SDS011;9862;49.462;11.054;2024-01-11T03:31:54;34.83;;;18.63;;
19446;SDS011;9862;49.462;11.054;2024-01-11T03:34:22;38.33;;;17.45;;
19446;SDS011;9862;49.462;11.054;2024-01-11T03:36:49;35.78;;;17.08;;
19446;SDS011;9862;49.462;11.054;2024-01-11T03:39:15;34.45;;;17.67;;
19446;SDS011;9862;49.462;11.054;2024-01-11T03:41:43;38.97;;;17.88;;
19446;SDS011;9862;49.462;11.054;2024-01-11T03:44:10;32.05;;;16.48;;
19446;SDS011;9862;49.462;11.054;2024-01-11T03:46:37;34.78;;;17.92;;
19446;SDS011;9862;49.462;11.054;2024-01-11T03:49:03;41.08;;;17.45;;
19446;SDS011;9862;49.462;11.054;2024-01-11T03:51:34;35.30;;;19.20;;
19446;SDS011;9862;49.462;11.054;2024-01-11T03:54:00;34.03;;;17.83;;
19446;SDS011;9862;49.462;11.054;2024-01-11T03:56:27;33.10;;;18.13;;
19446;SDS011;9862;49.462;11.054;2024-01-11T03:58:54;34.55;;;17.67;;
19446;SDS011;9862;49.462;11.054;2024-01-11T04:01:20;36.05;;;18.48;;
19446;SDS011;9862;49.462;11.054;2024-01-11T04:03:47;39.83;;;18.25;;
19446;SDS011;9862;49.462;11.054;2024-01-11T04:06:18;39.60;;;17.83;;
19446;SDS011;9862;49.462;11.054;2024-01-11T04:08:48;40.45;;;18.83;;
19446;SDS011;9862;49.462;11.054;2024-01-11T04:11:15;39.67;;;18.40;;
19446;SDS011;9862;49.462;11.054;2024-01-11T04:13:42;35.85;;;17.65;;
19446;SDS011;9862;49.462;11.054;2024-01-11T04:16:08;38.65;;;18.40;;
19446;SDS011;9862;49.462;11.054;2024-01-11T04:18:35;41.83;;;19.13;;
19446;SDS011;9862;49.462;11.054;2024-01-11T04:21:02;36.22;;;16.83;;
19446;SDS011;9862;49.462;11.054;2024-01-11T04:23:29;37.83;;;17.05;;
19446;SDS011;9862;49.462;11.054;2024-01-11T04:25:57;38.58;;;17.65;;
19446;SDS011;9862;49.462;11.054;2024-01-11T04:28:23;32.72;;;18.20;;
19446;SDS011;9862;49.462;11.054;2024-01-11T04:30:50;38.08;;;18.23;;
19446;SDS011;9862;49.462;11.054;2024-01-11T04:33:17;38.22;;;18.80;;
19446;SDS011;9862;49.462;11.054;2024-01-11T04:35:44;36.55;;;18.30;;
19446;SDS011;9862;49.462;11.054;2024-01-11T04:38:11;39.35;;;17.33;;
19446;SDS011;9862;49.462;11.054;2024-01-11T04:40:37;38.50;;;17.40;;
19446;SDS011;9862;49.462;11.054;2024-01-11T04:43:05;35.17;;;17.05;;
19446;SDS011;9862;49.462;11.054;2024-01-11T04:45:34;37.10;;;17.50;;
19446;SDS011;9862;49.462;11.054;2024-01-11T04:48:00;32.45;;;17.08;;
19446;SDS011;9862;49.462;11.054;2024-01-11T04:50:27;37.50;;;17.92;;
19446;SDS011;9862;49.462;11.054;2024-01-11T04:52:54;42.40;;;19.60;;
19446;SDS011;9862;49.462;11.054;2024-01-11T04:55:20;38.10;;;17.63;;
19446;SDS011;9862;49.462;11.054;2024-01-11T04:57:47;36.88;;;17.30;;
19446;SDS011;9862;49.462;11.054;2024-01-11T05:00:15;34.63;;;18.17;;
19446;SDS011;9862;49.462;11.054;2024-01-11T05:02:42;35.38;;;17.85;;
19446;SDS011;9862;49.462;11.054;2024-01-11T05:05:09;38.55;;;18.45;;
19446;SDS011;9862;49.462;11.054;2024-01-11T05:07:35;38.00;;;18.05;;
19446;SDS011;9862;49.462;11.054;2024-01-11T05:10:02;35.83;;;17.63;;
19446;SDS011;9862;49.462;11.054;2024-01-11T05:12:30;34.50;;;17.27;;
19446;SDS011;9862;49.462;11.054;2024-01-11T05:14:56;37.30;;;18.75;;
19446;SDS011;9862;49.462;11.054;2024-01-11T05:17:24;33.55;;;16.90;;
19446;SDS011;9862;49.462;11.054;2024-01-11T05:19:51;36.05;;;18.38;;
19446;SDS011;9862;49.462;11.054;2024-01-11T05:22:17;35.22;;;17.60;;
19446;SDS011;9862;49.462;11.054;2024-01-11T05:24:44;39.75;;;18.45;;
19446;SDS011;9862;49.462;11.054;2024-01-11T05:27:11;42.55;;;20.08;;
19446;SDS011;9862;49.462;11.054;2024-01-11T05:29:37;42.85;;;19.20;;
19446;SDS011;9862;49.462;11.054;2024-01-11T05:32:04;45.35;;;22.42;;
19446;SDS011;9862;49.462;11.054;2024-01-11T05:34:33;39.88;;;19.17;;
19446;SDS011;9862;49.462;11.054;2024-01-11T05:36:59;39.65;;;19.65;;
19446;SDS011;9862;49.462;11.054;2024-01-11T05:39:26;39.28;;;19.42;;
19446;SDS011;9862;49.462;11.054;2024-01-11T05:41:53;31.42;;;16.90;;
19446;SDS011;9862;49.462;11.054;2024-01-11T05:44:20;37.78;;;18.05;;
19446;SDS011;9862;49.462;11.054;2024-01-11T05:46:46;38.95;;;18.38;;
19446;SDS011;9862;49.462;11.054;2024-01-11T05:49:13;37.10;;;19.48;;
19446;SDS011;9862;49.462;11.054;2024-01-11T05:51:41;38.83;;;19.45;;
19446;SDS011;9862;49.462;11.054;2024-01-11T05:54:08;35.05;;;18.52;;
19446;SDS011;9862;49.462;11.054;2024-01-11T05:56:34;37.55;;;17.23;;
19446;SDS011;9862;49.462;11.054;2024-01-11T05:59:01;33.88;;;17.63;;
19446;SDS011;9862;49.462;11.054;2024-01-11T06:01:27;35.42;;;17.98;;
19446;SDS011;9862;49.462;11.054;2024-01-11T06:03:54;36.22;;;18.10;;
19446;SDS011;9862;49.462;11.054;2024-01-11T06:06:22;36.08;;;18.60;;
19446;SDS011;9862;49.462;11.054;2024-01-11T06:08:49;37.58;;;19.02;;
19446;SDS011;9862;49.462;11.054;2024-01-11T06:11:16;35.80;;;18.88;;
19446;SDS011;9862;49.462;11.054;2024-01-11T06:13:43;41.22;;;20.52;;
19446;SDS011;9862;49.462;11.054;2024-01-11T06:16:10;45.92;;;22.30;;
19446;SDS011;9862;49.462;11.054;2024-01-11T06:18:36;38.63;;;20.85;;
19446;SDS011;9862;49.462;11.054;2024-01-11T06:21:03;48.25;;;21.13;;
19446;SDS011;9862;49.462;11.054;2024-01-11T06:23:30;42.10;;;19.15;;
19446;SDS011;9862;49.462;11.054;2024-01-11T06:25:58;42.67;;;19.67;;
19446;SDS011;9862;49.462;11.054;2024-01-11T06:28:25;42.53;;;20.45;;
19446;SDS011;9862;49.462;11.054;2024-01-11T06:30:51;41.70;;;21.52;;
19446;SDS011;9862;49.462;11.054;2024-01-11T06:33:18;44.13;;;19.98;;
19446;SDS011;9862;49.462;11.054;2024-01-11T06:35:45;43.70;;;18.80;;
19446;SDS011;9862;49.462;11.054;2024-01-11T06:38:12;38.63;;;18.15;;
19446;SDS011;9862;49.462;11.054;2024-01-11T06:40:39;40.25;;;18.77;;
19446;SDS011;9862;49.462;11.054;2024-01-11T06:43:07;37.80;;;18.83;;
19446;SDS011;9862;49.462;11.054;2024-01-11T06:45:33;41.55;;;19.02;;
19446;SDS011;9862;49.462;11.054;2024-01-11T06:48:00;37.92;;;19.10;;
19446;SDS011;9862;49.462;11.054;2024-01-11T06:50:27;39.20;;;18.08;;
19446;SDS011;9862;49.462;11.054;2024-01-11T06:52:53;37.50;;;17.38;;
19446;SDS011;9862;49.462;11.054;2024-01-11T06:55:20;41.63;;;18.83;;
19446;SDS011;9862;49.462;11.054;2024-01-11T06:57:47;39.85;;;18.40;;
19446;SDS011;9862;49.462;11.054;2024-01-11T07:00:15;49.88;;;22.33;;
19446;SDS011;9862;49.462;11.054;2024-01-11T07:02:42;52.83;;;21.13;;
19446;SDS011;9862;49.462;11.054;2024-01-11T07:05:09;47.38;;;21.15;;
19446;SDS011;9862;49.462;11.054;2024-01-11T07:07:35;43.08;;;20.38;;
19446;SDS011;9862;49.462;11.054;2024-01-11T07:10:02;48.55;;;19.35;;
19446;SDS011;9862;49.462;11.054;2024-01-11T07:12:30;44.65;;;20.40;;
19446;SDS011;9862;49.462;11.054;2024-01-11T07:14:57;44.05;;;19.40;;
19446;SDS011;9862;49.462;11.054;2024-01-11T07:17:25;40.55;;;18.25;;
19446;SDS011;9862;49.462;11.054;2024-01-11T07:19:52;39.63;;;17.80;;
19446;SDS011;9862;49.462;11.054;2024-01-11T07:22:18;41.10;;;19.35;;
19446;SDS011;9862;49.462;11.054;2024-01-11T07:24:45;46.63;;;19.15;;
19446;SDS011;9862;49.462;11.054;2024-01-11T07:27:11;46.75;;;19.95;;
19446;SDS011;9862;49.462;11.054;2024-01-11T07:29:38;45.47;;;20.00;;
19446;SDS011;9862;49.462;11.054;2024-01-11T07:32:05;45.60;;;20.77;;
19446;SDS011;9862;49.462;11.054;2024-01-11T07:34:33;47.85;;;19.67;;
19446;SDS011;9862;49.462;11.054;2024-01-11T07:37:00;46.28;;;20.65;;
19446;SDS011;9862;49.462;11.054;2024-01-11T07:39:26;41.72;;;20.27;;
19446;SDS011;9862;49.462;11.054;2024-01-11T07:41:53;44.58;;;20.42;;
19446;SDS011;9862;49.462;11.054;2024-01-11T07:44:20;44.03;;;18.42;;
19446;SDS011;9862;49.462;11.054;2024-01-11T07:46:47;35.25;;;18.92;;
19446;SDS011;9862;49.462;11.054;2024-01-11T07:49:13;38.05;;;18.42;;
19446;SDS011;9862;49.462;11.054;2024-01-11T07:51:41;44.13;;;20.48;;
19446;SDS011;9862;49.462;11.054;2024-01-11T07:54:08;45.70;;;19.73;;
19446;SDS011;9862;49.462;11.054;2024-01-11T07:56:35;42.35;;;19.25;;
19446;SDS011;9862;49.462;11.054;2024-01-11T07:59:01;44.85;;;18.70;;
19446;SDS011;9862;49.462;11.054;2024-01-11T08:01:28;44.65;;;18.35;;
19446;SDS011;9862;49.462;11.054;2024-01-11T08:03:55;48.03;;;19.80;;
19446;SDS011;9862;49.462;11.054;2024-01-11T08:06:21;37.63;;;17.83;;
19446;SDS011;9862;49.462;11.054;2024-01-11T08:08:49;37.45;;;17.60;;
19446;SDS011;9862;49.462;11.054;2024-01-11T08:11:17;37.03;;;17.08;;
19446;SDS011;9862;49.462;11.054;2024-01-11T08:13:44;37.15;;;18.05;;
19446;SDS011;9862;49.462;11.054;2024-01-11T08:16:14;44.55;;;19.75;;
19446;SDS011;9862;49.462;11.054;2024-01-11T08:18:42;49.05;;;18.27;;
19446;SDS011;9862;49.462;11.054;2024-01-11T08:21:09;37.65;;;18.92;;
19446;SDS011;9862;49.462;11.054;2024-01-11T08:23:36;39.13;;;18.80;;
19446;SDS011;9862;49.462;11.054;2024-01-11T08:26:05;35.55;;;16.83;;
19446;SDS011;9862;49.462;11.054;2024-01-11T08:28:33;40.80;;;17.52;;
19446;SDS011;9862;49.462;11.054;2024-01-11T08:31:00;43.70;;;20.13;;
19446;SDS011;9862;49.462;11.054;2024-01-11T08:33:29;40.70;;;18.08;;
19446;SDS011;9862;49.462;11.054;2024-01-11T08:35:56;32.38;;;17.98;;
19446;SDS011;9862;49.462;11.054;2024-01-11T08:38:23;40.70;;;19.45;;
19446;SDS011;9862;49.462;11.054;2024-01-11T08:40:50;36.85;;;18.13;;
19446;SDS011;9862;49.462;11.054;2024-01-11T08:43:18;35.22;;;18.90;;
19446;SDS011;9862;49.462;11.054;2024-01-11T08:45:45;41.40;;;19.13;;
19446;SDS011;9862;49.462;11.054;2024-01-11T08:48:11;37.35;;;19.48;;
19446;SDS011;9862;49.462;11.054;2024-01-11T08:50:38;46.50;;;19.77;;
19446;SDS011;9862;49.462;11.054;2024-01-11T08:53:05;41.03;;;20.42;;
19446;SDS011;9862;49.462;11.054;2024-01-11T08:55:31;37.55;;;19.13;;
19446;SDS011;9862;49.462;11.054;2024-01-11T08:57:59;38.78;;;19.83;;
19446;SDS011;9862;49.462;11.054;2024-01-11T09:00:27;40.08;;;18.27;;
19446;SDS011;9862;49.462;11.054;2024-01-11T09:02:54;38.55;;;18.58;;
19446;SDS011;9862;49.462;11.054;2024-01-11T09:05:20;38.55;;;18.45;;
19446;SDS011;9862;49.462;11.054;2024-01-11T09:07:47;38.38;;;18.70;;
19446;SDS011;9862;49.462;11.054;2024-01-11T09:10:14;40.72;;;18.67;;
19446;SDS011;9862;49.462;11.054;2024-01-11T09:12:41;43.75;;;19.35;;
19446;SDS011;9862;49.462;11.054;2024-01-11T09:15:08;35.63;;;18.08;;
19446;SDS011;9862;49.462;11.054;2024-01-11T09:17:36;35.95;;;18.40;;
19446;SDS011;9862;49.462;11.054;2024-01-11T09:20:04;40.67;;;19.35;;
19446;SDS011;9862;49.462;11.054;2024-01-11T09:22:31;36.10;;;17.45;;
19446;SDS011;9862;49.462;11.054;2024-01-11T09:24:57;42.22;;;19.52;;
19446;SDS011;9862;49.462;11.054;2024-01-11T09:27:24;39.72;;;20.77;;
19446;SDS011;9862;49.462;11.054;2024-01-11T09:29:51;32.83;;;17.52;;
19446;SDS011;9862;49.462;11.054;2024-01-11T09:32:17;39.22;;;19.02;;
19446;SDS011;9862;49.462;11.054;2024-01-11T09:34:46;42.33;;;18.48;;
19446;SDS011;9862;49.462;11.054;2024-01-11T09:37:13;36.33;;;18.58;;
19446;SDS011;9862;49.462;11.054;2024-01-11T09:39:39;44.03;;;19.40;;
19446;SDS011;9862;49.462;11.054;2024-01-11T09:42:08;46.83;;;20.42;;
19446;SDS011;9862;49.462;11.054;2024-01-11T09:44:35;43.90;;;19.08;;
19446;SDS011;9862;49.462;11.054;2024-01-11T09:47:03;44.78;;;19.52;;
19446;SDS011;9862;49.462;11.054;2024-01-11T09:49:31;44.85;;;17.73;;
19446;SDS011;9862;49.462;11.054;2024-01-11T09:52:01;41.97;;;19.23;;
19446;SDS011;9862;49.462;11.054;2024-01-11T09:54:28;44.00;;;18.80;;
19446;SDS011;9862;49.462;11.054;2024-01-11T09:56:56;44.83;;;19.70;;
19446;SDS011;9862;49.462;11.054;2024-01-11T09:59:24;36.45;;;19.27;;
19446;SDS011;9862;49.462;11.054;2024-01-11T10:01:52;41.55;;;18.40;;
19446;SDS011;9862;49.462;11.054;2024-01-11T10:04:19;42.85;;;19.10;;
19446;SDS011;9862;49.462;11.054;2024-01-11T10:06:45;41.05;;;19.48;;
19446;SDS011;9862;49.462;11.054;2024-01-11T10:09:14;43.13;;;19.50;;
19446;SDS011;9862;49.462;11.054;2024-01-11T10:11:41;40.92;;;18.58;;
19446;SDS011;9862;49.462;11.054;2024-01-11T10:14:08;38.97;;;18.85;;
19446;SDS011;9862;49.462;11.054;2024-01-11T10:16:38;41.80;;;20.55;;
19446;SDS011;9862;49.462;11.054;2024-01-11T10:19:04;39.25;;;19.73;;
19446;SDS011;9862;49.462;11.054;2024-01-11T10:21:31;38.67;;;19.75;;
19446;SDS011;9862;49.462;11.054;2024-01-11T10:23:58;44.90;;;21.10;;
19446;SDS011;9862;49.462;11.054;2024-01-11T10:26:31;42.03;;;18.92;;
19446;SDS011;9862;49.462;11.054;2024-01-11T10:28:58;43.92;;;20.02;;
19446;SDS011;9862;49.462;11.054;2024-01-11T10:31:28;37.97;;;18.23;;
19446;SDS011;9862;49.462;11.054;2024-01-11T10:33:54;45.10;;;19.40;;
19446;SDS011;9862;49.462;11.054;2024-01-11T10:36:21;40.90;;;18.63;;
19446;SDS011;9862;49.462;11.054;2024-01-11T10:38:48;41.55;;;18.50;;
19446;SDS011;9862;49.462;11.054;2024-01-11T10:41:17;37.28;;;18.80;;
19446;SDS011;9862;49.462;11.054;2024-01-11T10:43:47;43.40;;;18.80;;
19446;SDS011;9862;49.462;11.054;2024-01-11T10:46:14;36.83;;;18.38;;
19446;SDS011;9862;49.462;11.054;2024-01-11T10:48:42;35.95;;;18.15;;
19446;SDS011;9862;49.462;11.054;2024-01-11T10:51:12;36.85;;;19.40;;
19446;SDS011;9862;49.462;11.054;2024-01-11T10:53:43;33.30;;;16.88;;
19446;SDS011;9862;49.462;11.054;2024-01-11T10:56:11;33.47;;;17.17;;
19446;SDS011;9862;49.462;11.054;2024-01-11T10:58:39;41.20;;;17.80;;
19446;SDS011;9862;49.462;11.054;2024-01-11T11:01:08;35.70;;;17.27;;
19446;SDS011;9862;49.462;11.054;2024-01-11T11:03:36;34.00;;;16.45;;
19446;SDS011;9862;49.462;11.054;2024-01-11T11:06:04;31.90;;;16.10;;
19446;SDS011;9862;49.462;11.054;2024-01-11T11:08:32;35.80;;;17.05;;
19446;SDS011;9862;49.462;11.054;2024-01-11T11:11:00;35.15;;;17.38;;
19446;SDS011;9862;49.462;11.054;2024-01-11T11:13:28;33.47;;;15.88;;
19446;SDS011;9862;49.462;11.054;2024-01-11T11:15:55;36.85;;;17.23;;
19446;SDS011;9862;49.462;11.054;2024-01-11T11:18:24;30.40;;;15.82;;
19446;SDS011;9862;49.462;11.054;2024-01-11T11:20:51;38.35;;;17.17;;
19446;SDS011;9862;49.462;11.054;2024-01-11T11:23:19;37.28;;;16.13;;
19446;SDS011;9862;49.462;11.054;2024-01-11T11:25:46;34.47;;;16.30;;
19446;SDS011;9862;49.462;11.054;2024-01-11T11:28:14;37.83;;;17.80;;
19446;SDS011;9862;49.462;11.054;2024-01-11T11:30:43;34.40;;;16.70;;
19446;SDS011;9862;49.462;11.054;2024-01-11T11:33:11;33.10;;;16.83;;
19446;SDS011;9862;49.462;11.054;2024-01-11T11:35:44;31.00;;;16.20;;
19446;SDS011;9862;49.462;11.054;2024-01-11T11:38:16;37.80;;;17.25;;
19446;SDS011;9862;49.462;11.054;2024-01-11T11:40:44;36.95;;;16.73;;
19446;SDS011;9862;49.462;11.054;2024-01-11T11:43:14;34.65;;;16.70;;
19446;SDS011;9862;49.462;11.054;2024-01-11T11:45:42;33.10;;;16.00;;
19446;SDS011;9862;49.462;11.054;2024-01-11T11:51:15;30.67;;;14.85;;
19446;SDS011;9862;49.462;11.054;2024-01-11T11:53:43;33.03;;;15.02;;
19446;SDS011;9862;49.462;11.054;2024-01-11T11:56:11;30.23;;;16.13;;
19446;SDS011;9862;49.462;11.054;2024-01-11T11:58:41;29.27;;;14.73;;
19446;SDS011;9862;49.462;11.054;2024-01-11T12:01:09;33.08;;;15.73;;
19446;SDS011;9862;49.462;11.054;2024-01-11T12:03:38;35.63;;;15.93;;
19446;SDS011;9862;49.462;11.054;2024-01-11T12:06:07;31.48;;;15.30;;
19446;SDS011;9862;49.462;11.054;2024-01-11T12:08:36;32.40;;;15.57;;
19446;SDS011;9862;49.462;11.054;2024-01-11T12:11:05;35.42;;;16.35;;
19446;SDS011;9862;49.462;11.054;2024-01-11T12:13:32;30.55;;;15.80;;
19446;SDS011;9862;49.462;11.054;2024-01-11T12:15:59;34.33;;;15.60;;
19446;SDS011;9862;49.462;11.054;2024-01-11T12:18:25;33.55;;;16.58;;
19446;SDS011;9862;49.462;11.054;2024-01-11T12:20:52;30.70;;;16.25;;
19446;SDS011;9862;49.462;11.054;2024-01-11T12:23:19;30.48;;;14.82;;
19446;SDS011;9862;49.462;11.054;2024-01-11T12:25:47;38.38;;;16.20;;
19446;SDS011;9862;49.462;11.054;2024-01-11T12:28:14;34.85;;;15.68;;
19446;SDS011;9862;49.462;11.054;2024-01-11T12:30:41;35.58;;;15.45;;
19446;SDS011;9862;49.462;11.054;2024-01-11T12:33:11;35.35;;;16.20;;
19446;SDS011;9862;49.462;11.054;2024-01-11T12:35:39;35.47;;;15.20;;
19446;SDS011;9862;49.462;11.054;2024-01-11T12:38:06;29.30;;;15.30;;
19446;SDS011;9862;49.462;11.054;2024-01-11T12:40:34;38.13;;;18.08;;
19446;SDS011;9862;49.462;11.054;2024-01-11T12:43:04;33.95;;;16.83;;
19446;SDS011;9862;49.462;11.054;2024-01-11T12:45:32;33.17;;;16.10;;
19446;SDS011;9862;49.462;11.054;2024-01-11T12:48:00;30.17;;;16.00;;
19446;SDS011;9862;49.462;11.054;2024-01-11T12:50:28;31.83;;;15.57;;
19446;SDS011;9862;49.462;11.054;2024-01-11T12:53:07;34.33;;;16.30;;
19446;SDS011;9862;49.462;11.054;2024-01-11T12:55:34;27.42;;;15.77;;
19446;SDS011;9862;49.462;11.054;2024-01-11T12:58:06;31.73;;;15.10;;
19446;SDS011;9862;49.462;11.054;2024-01-11T13:00:34;31.60;;;16.38;;
19446;SDS011;9862;49.462;11.054;2024-01-11T13:03:01;30.45;;;14.80;;
19446;SDS011;9862;49.462;11.054;2024-01-11T13:05:28;29.58;;;14.05;;
19446;SDS011;9862;49.462;11.054;2024-01-11T13:07:57;32.35;;;15.80;;
19446;SDS011;9862;49.462;11.054;2024-01-11T13:10:24;30.75;;;14.00;;
19446;SDS011;9862;49.462;11.054;2024-01-11T13:12:53;29.45;;;14.63;;
19446;SDS011;9862;49.462;11.054;2024-01-11T13:15:21;25.17;;;13.77;;
19446;SDS011;9862;49.462;11.054;2024-01-11T13:17:49;27.48;;;14.73;;
19446;SDS011;9862;49.462;11.054;2024-01-11T13:20:15;25.58;;;13.50;;
19446;SDS011;9862;49.462;11.054;2024-01-11T13:22:43;33.58;;;14.13;;
19446;SDS011;9862;49.462;11.054;2024-01-11T13:25:09;26.20;;;13.35;;
19446;SDS011;9862;49.462;11.054;2024-01-11T13:27:36;30.83;;;15.10;;
19446;SDS011;9862;49.462;11.054;2024-01-11T13:30:03;31.35;;;15.13;;
19446;SDS011;9862;49.462;11.054;2024-01-11T13:32:32;28.77;;;14.40;;
19446;SDS011;9862;49.462;11.054;2024-01-11T13:34:58;28.95;;;14.68;;
19446;SDS011;9862;49.462;11.054;2024-01-11T13:37:25;28.02;;;14.13;;
19446;SDS011;9862;49.462;11.054;2024-01-11T13:39:52;29.67;;;14.68;;
19446;SDS011;9862;49.462;11.054;2024-01-11T13:42:18;30.27;;;14.57;;
19446;SDS011;9862;49.462;11.054;2024-01-11T13:44:45;33.45;;;15.23;;
19446;SDS011;9862;49.462;11.054;2024-01-11T13:47:11;33.28;;;15.25;;
19446;SDS011;9862;49.462;11.054;2024-01-11T13:49:40;29.95;;;14.30;;
19446;SDS011;9862;49.462;11.054;2024-01-11T13:52:07;25.50;;;13.95;;
19446;SDS011;9862;49.462;11.054;2024-01-11T13:54:34;24.65;;;13.82;;
19446;SDS011;9862;49.462;11.054;2024-01-11T13:57:00;37.70;;;15.40;;
19446;SDS011;9862;49.462;11.054;2024-01-11T13:59:27;29.15;;;14.80;;
19446;SDS011;9862;49.462;11.054;2024-01-11T14:01:54;30.20;;;14.80;;
19446;SDS011;9862;49.462;11.054;2024-01-11T14:04:21;28.88;;;14.82;;
19446;SDS011;9862;49.462;11.054;2024-01-11T14:06:49;26.52;;;13.68;;
19446;SDS011;9862;49.462;11.054;2024-01-11T14:09:17;25.92;;;13.57;;
19446;SDS011;9862;49.462;11.054;2024-01-11T14:11:44;29.45;;;14.52;;
19446;SDS011;9862;49.462;11.054;2024-01-11T14:14:13;24.75;;;13.35;;
19446;SDS011;9862;49.462;11.054;2024-01-11T14:16:40;32.20;;;14.80;;
19446;SDS011;9862;49.462;11.054;2024-01-11T14:19:07;31.70;;;13.63;;
19446;SDS011;9862;49.462;11.054;2024-01-11T14:21:33;26.30;;;12.68;;
19446;SDS011;9862;49.462;11.054;2024-01-11T14:24:03;27.60;;;14.07;;